Terminal Aerodrome Forecast
Issued by NWS Wakefield, VA

Home | Current Version | Previous Version | Text Only | Print | Product List | Glossary On
Versions: 1 2 3 4 5 6 7 8 9 10 11 12 13 14 15 16 17 18
000
FTUS41 KAKQ 210900 AAA
TAFORF
TAF AMD
KORF 210935Z 2110/2206 03012KT P6SM SCT007 OVC010
     FM211400 03014G20KT P6SM SCT035
     FM211800 03009KT P6SM SKC
     FM212300 09007KT P6SM SKC=

USA.gov is the U.S. government's official web portal to all federal, state and local government web resources and services.